createdAt,value
2023-02-17T00:00:27.847Z,237
2023-02-17T00:00:58.761Z,237
2023-02-17T00:01:29.866Z,237
2023-02-17T00:02:02.661Z,237
2023-02-17T00:02:34.057Z,237
2023-02-17T00:03:06.553Z,237
2023-02-17T00:03:37.889Z,237
2023-02-17T00:04:10.740Z,237
2023-02-17T00:04:41.940Z,216
2023-02-17T00:05:14.978Z,216
2023-02-17T00:05:45.929Z,216
2023-02-17T00:06:18.595Z,216
2023-02-17T00:06:49.916Z,213
2023-02-17T00:07:23.797Z,216
2023-02-17T00:07:53.961Z,213
2023-02-17T00:08:26.844Z,213
2023-02-17T00:08:57.882Z,223
2023-02-17T00:09:30.737Z,188
2023-02-17T00:10:02.483Z,224
2023-02-17T00:10:34.634Z,224
2023-02-17T00:11:05.911Z,224
2023-02-17T00:11:38.644Z,224
2023-02-17T00:12:09.785Z,224
2023-02-17T00:12:42.734Z,272
2023-02-17T00:13:13.945Z,224
2023-02-17T00:13:46.729Z,224
2023-02-17T00:14:17.849Z,224
2023-02-17T00:14:50.638Z,224
2023-02-17T00:15:23.004Z,212
2023-02-17T00:15:54.798Z,222
2023-02-17T00:16:25.899Z,226
2023-02-17T00:16:58.802Z,226
2023-02-17T00:17:29.950Z,226
2023-02-17T00:18:02.823Z,226
2023-02-17T00:18:33.887Z,226
2023-02-17T00:19:06.716Z,226
2023-02-17T00:19:38.059Z,222
2023-02-17T00:20:10.806Z,222
2023-02-17T00:20:41.974Z,243
2023-02-17T00:21:14.693Z,231
2023-02-17T00:21:45.948Z,229
2023-02-17T00:22:18.775Z,229
2023-02-17T00:22:49.944Z,229
2023-02-17T00:23:22.768Z,229
2023-02-17T00:23:53.824Z,229
2023-02-17T00:24:26.837Z,229
2023-02-17T00:24:57.973Z,229
2023-02-17T00:25:31.221Z,238
2023-02-17T00:26:01.968Z,237
2023-02-17T00:26:34.846Z,237
2023-02-17T00:27:05.814Z,237
2023-02-17T00:27:38.852Z,237
2023-02-17T00:28:09.879Z,246
2023-02-17T00:28:42.774Z,236
2023-02-17T00:29:13.836Z,236
2023-02-17T00:29:46.685Z,236
2023-02-17T00:30:19.046Z,236
2023-02-17T00:30:50.848Z,243
2023-02-17T00:31:21.910Z,243
2023-02-17T00:31:54.981Z,234
2023-02-17T00:32:25.931Z,252
2023-02-17T00:32:58.797Z,248
2023-02-17T00:33:29.910Z,197
2023-02-17T00:34:02.760Z,251
2023-02-17T00:34:33.794Z,251
2023-02-17T00:35:07.061Z,248
2023-02-17T00:35:37.934Z,251
2023-02-17T00:36:10.938Z,251
2023-02-17T00:36:41.946Z,251
2023-02-17T00:37:14.864Z,251
2023-02-17T00:37:46.024Z,251
2023-02-17T00:38:18.673Z,243
2023-02-17T00:38:50.001Z,243
2023-02-17T00:39:22.854Z,269
2023-02-17T00:39:54.215Z,267
2023-02-17T00:40:26.982Z,240
2023-02-17T00:40:58.002Z,250
2023-02-17T00:41:30.888Z,251
2023-02-17T00:42:01.919Z,251
2023-02-17T00:42:34.906Z,218
2023-02-17T00:43:05.932Z,245
2023-02-17T00:43:38.832Z,244
2023-02-17T00:44:09.842Z,244
2023-02-17T00:44:42.666Z,244
2023-02-17T00:45:14.891Z,244
2023-02-17T00:45:46.805Z,244
2023-02-17T00:46:18.063Z,211
2023-02-17T00:46:50.908Z,246
2023-02-17T00:47:21.850Z,246
2023-02-17T00:47:54.650Z,246
2023-02-17T00:48:25.946Z,249
2023-02-17T00:48:58.685Z,249
2023-02-17T00:49:29.852Z,248
2023-02-17T00:50:03.057Z,248
2023-02-17T00:50:33.938Z,236
2023-02-17T00:51:06.767Z,236
2023-02-17T00:51:38.023Z,241
2023-02-17T00:52:10.880Z,241
2023-02-17T00:52:41.926Z,241
2023-02-17T00:53:14.706Z,241
2023-02-17T00:53:45.910Z,241
2023-02-17T00:54:18.736Z,241
2023-02-17T00:54:50.002Z,241
2023-02-17T00:55:23.015Z,241
2023-02-17T00:55:53.902Z,241
2023-02-17T00:56:26.896Z,236
2023-02-17T00:56:57.820Z,251
2023-02-17T00:57:30.748Z,251
2023-02-17T00:58:02.051Z,251
2023-02-17T00:58:34.566Z,207
2023-02-17T00:59:05.845Z,207
2023-02-17T00:59:38.741Z,207
2023-02-17T01:00:11.651Z,207
2023-02-17T01:00:42.709Z,207
2023-02-17T01:01:13.904Z,207
2023-02-17T01:01:46.885Z,207
2023-02-17T01:02:17.769Z,223
2023-02-17T01:02:50.768Z,223
2023-02-17T01:03:21.895Z,223
2023-02-17T01:03:54.779Z,214
2023-02-17T01:04:25.933Z,214
2023-02-17T01:04:58.792Z,232
2023-02-17T01:05:30.349Z,229
2023-02-17T01:06:03.054Z,229
2023-02-17T01:06:33.761Z,211
2023-02-17T01:07:06.892Z,214
2023-02-17T01:07:37.858Z,214
2023-02-17T01:08:10.763Z,229
2023-02-17T01:08:41.933Z,229
2023-02-17T01:09:14.810Z,229
2023-02-17T01:09:45.890Z,229
2023-02-17T01:10:18.942Z,232
2023-02-17T01:10:49.916Z,232
2023-02-17T01:11:22.561Z,232
2023-02-17T01:11:53.945Z,232
2023-02-17T01:12:26.901Z,226
2023-02-17T01:12:58.020Z,232
2023-02-17T01:13:30.810Z,233
2023-02-17T01:14:01.910Z,233
2023-02-17T01:14:34.876Z,233
2023-02-17T01:15:07.087Z,233
2023-02-17T01:15:38.870Z,233
2023-02-17T01:16:09.933Z,233
2023-02-17T01:16:42.542Z,233
2023-02-17T01:17:13.900Z,225
2023-02-17T01:17:46.926Z,225
2023-02-17T01:18:17.997Z,225
2023-02-17T01:18:50.608Z,225
2023-02-17T01:19:21.976Z,225
2023-02-17T01:19:54.885Z,225
2023-02-17T01:20:26.164Z,228
2023-02-17T01:20:58.746Z,228
2023-02-17T01:21:29.960Z,228
2023-02-17T01:22:02.901Z,232
2023-02-17T01:22:33.961Z,232
2023-02-17T01:23:06.923Z,244
2023-02-17T01:23:38.008Z,195
2023-02-17T01:24:10.927Z,229
2023-02-17T01:24:41.844Z,229
2023-02-17T01:25:15.158Z,229
2023-02-17T01:25:46.016Z,229
2023-02-17T01:26:18.613Z,229
2023-02-17T01:26:50.037Z,229
2023-02-17T01:27:23.921Z,229
2023-02-17T01:27:53.832Z,252
2023-02-17T01:28:26.760Z,252
2023-02-17T01:28:57.960Z,252
2023-02-17T01:29:31.938Z,252
2023-02-17T01:30:03.279Z,252
2023-02-17T01:30:34.976Z,252
2023-02-17T01:31:06.065Z,252
2023-02-17T01:31:38.734Z,252
2023-02-17T01:32:09.903Z,252
2023-02-17T01:32:42.990Z,229
2023-02-17T01:33:13.985Z,252
2023-02-17T01:33:46.624Z,252
2023-02-17T01:34:17.910Z,252
2023-02-17T01:34:50.737Z,223
2023-02-17T01:35:22.061Z,223
2023-02-17T01:35:54.700Z,223
2023-02-17T01:36:26.060Z,223
2023-02-17T01:36:58.718Z,250
2023-02-17T01:37:29.798Z,250
2023-02-17T01:38:02.876Z,223
2023-02-17T01:38:34.007Z,246
2023-02-17T01:39:06.815Z,240
2023-02-17T01:39:37.801Z,240
2023-02-17T01:40:10.928Z,240
2023-02-17T01:40:42.032Z,237
2023-02-17T01:41:14.723Z,237
2023-02-17T01:41:45.913Z,237
2023-02-17T01:42:18.888Z,242
2023-02-17T01:42:49.881Z,229
2023-02-17T01:43:22.618Z,220
2023-02-17T01:43:54.029Z,220
2023-02-17T01:44:27.067Z,240
2023-02-17T01:44:57.799Z,237
2023-02-17T01:45:31.874Z,237
2023-02-17T01:46:02.090Z,237
2023-02-17T01:46:34.752Z,242
2023-02-17T01:47:06.014Z,235
2023-02-17T01:47:38.911Z,236
2023-02-17T01:48:09.954Z,236
2023-02-17T01:48:42.904Z,236
2023-02-17T01:49:13.922Z,236
2023-02-17T01:49:46.832Z,222
2023-02-17T01:50:18.166Z,236
2023-02-17T01:50:50.829Z,222
2023-02-17T01:51:21.976Z,207
2023-02-17T01:51:54.853Z,216
2023-02-17T01:52:25.930Z,216
2023-02-17T01:52:58.810Z,211
2023-02-17T01:53:30.015Z,211
2023-02-17T01:54:02.692Z,211
2023-02-17T01:54:33.972Z,211
2023-02-17T01:55:07.254Z,211
2023-02-17T01:55:38.124Z,211
2023-02-17T01:56:10.944Z,211
2023-02-17T01:56:41.956Z,211
2023-02-17T01:57:14.888Z,211
2023-02-17T01:57:45.904Z,183
2023-02-17T01:58:18.768Z,183
2023-02-17T01:58:49.834Z,183
2023-02-17T01:59:22.942Z,183
2023-02-17T01:59:53.871Z,183
2023-02-17T02:00:28.853Z,183
2023-02-17T02:00:58.060Z,187
2023-02-17T02:01:31.819Z,207
2023-02-17T02:02:02.022Z,201
2023-02-17T02:02:34.907Z,207
2023-02-17T02:03:06.025Z,176
2023-02-17T02:03:38.686Z,176
2023-02-17T02:04:09.898Z,219
2023-02-17T02:04:42.814Z,179
2023-02-17T02:05:14.185Z,200
2023-02-17T02:05:47.013Z,174
2023-02-17T02:06:17.916Z,174
2023-02-17T02:06:51.063Z,174
2023-02-17T02:07:21.855Z,174
2023-02-17T02:07:54.984Z,174
2023-02-17T02:08:26.086Z,174
2023-02-17T02:08:59.628Z,257
2023-02-17T02:09:29.839Z,198
2023-02-17T02:10:03.072Z,244
2023-02-17T02:10:33.768Z,244
2023-02-17T02:11:06.969Z,243
2023-02-17T02:11:38.095Z,239
2023-02-17T02:12:14.078Z,239
2023-02-17T02:12:42.075Z,239
2023-02-17T02:13:14.845Z,244
2023-02-17T02:13:46.111Z,244
2023-02-17T02:14:18.819Z,244
2023-02-17T02:14:49.963Z,244
2023-02-17T02:15:24.042Z,244
2023-02-17T02:15:54.186Z,244
2023-02-17T02:16:26.909Z,168
2023-02-17T02:16:58.092Z,177
2023-02-17T02:17:33.973Z,169
2023-02-17T02:18:02.214Z,174
2023-02-17T02:18:35.088Z,174
2023-02-17T02:19:06.126Z,174
2023-02-17T02:19:39.791Z,174
2023-02-17T02:20:10.284Z,174
2023-02-17T02:20:42.750Z,174
2023-02-17T02:21:13.981Z,174
2023-02-17T02:21:47.699Z,174
2023-02-17T02:22:17.858Z,174
2023-02-17T02:22:50.859Z,174
2023-02-17T02:23:22.002Z,174
2023-02-17T02:23:54.590Z,177
2023-02-17T02:24:25.988Z,179
2023-02-17T02:24:58.917Z,184
2023-02-17T02:25:30.241Z,184
2023-02-17T02:26:02.821Z,184
2023-02-17T02:26:34.034Z,228
2023-02-17T02:27:06.795Z,228
2023-02-17T02:27:37.845Z,197
2023-02-17T02:28:11.838Z,221
2023-02-17T02:28:42.041Z,231
2023-02-17T02:29:14.984Z,231
2023-02-17T02:29:46.084Z,228
2023-02-17T02:30:19.940Z,228
2023-02-17T02:30:50.140Z,224
2023-02-17T02:31:23.267Z,224
2023-02-17T02:31:54.128Z,224
2023-02-17T02:32:27.020Z,224
2023-02-17T02:32:57.992Z,224
2023-02-17T02:33:32.204Z,228
2023-02-17T02:34:02.244Z,228
2023-02-17T02:34:34.892Z,210
2023-02-17T02:35:06.340Z,219
2023-02-17T02:35:39.092Z,219
2023-02-17T02:36:10.157Z,243
2023-02-17T02:36:42.674Z,243
2023-02-17T02:37:14.078Z,200
2023-02-17T02:37:46.988Z,200
2023-02-17T02:38:18.251Z,227
2023-02-17T02:38:50.771Z,219
2023-02-17T02:39:22.124Z,219
2023-02-17T02:39:54.822Z,247
2023-02-17T02:40:26.288Z,242
2023-02-17T02:40:58.799Z,237
2023-02-17T02:41:30.043Z,229
2023-02-17T02:42:02.842Z,252
2023-02-17T02:42:33.959Z,243
2023-02-17T02:43:07.137Z,228
2023-02-17T02:43:37.895Z,243
2023-02-17T02:44:10.607Z,243
2023-02-17T02:44:42.047Z,240
2023-02-17T02:45:15.886Z,247
2023-02-17T02:45:46.053Z,247
2023-02-17T02:46:18.938Z,252
2023-02-17T02:46:50.078Z,252
2023-02-17T02:47:22.734Z,252
2023-02-17T02:47:53.994Z,252
2023-02-17T02:48:26.904Z,252
2023-02-17T02:48:58.130Z,249
2023-02-17T02:49:30.750Z,249
2023-02-17T02:50:02.418Z,252
2023-02-17T02:50:34.856Z,252
2023-02-17T02:51:05.950Z,252
2023-02-17T02:51:39.026Z,257
2023-02-17T02:52:09.970Z,257
2023-02-17T02:52:43.047Z,257
2023-02-17T02:53:13.889Z,257
2023-02-17T02:53:46.704Z,257
2023-02-17T02:54:18.020Z,257
2023-02-17T02:54:51.117Z,257
2023-02-17T02:55:22.239Z,257
2023-02-17T02:55:54.716Z,257
2023-02-17T02:56:26.063Z,209
2023-02-17T02:56:58.728Z,234
2023-02-17T02:57:29.986Z,234
2023-02-17T02:58:03.226Z,210
2023-02-17T02:58:33.946Z,227
2023-02-17T02:59:06.755Z,210
2023-02-17T02:59:38.068Z,234
2023-02-17T03:00:12.713Z,234
2023-02-17T03:00:42.141Z,234
2023-02-17T03:01:14.894Z,234
2023-02-17T03:01:45.964Z,234
2023-02-17T03:02:19.239Z,232
2023-02-17T03:02:50.021Z,231
2023-02-17T03:03:23.208Z,231
2023-02-17T03:03:54.160Z,231
2023-02-17T03:04:27.045Z,234
2023-02-17T03:04:58.116Z,234
2023-02-17T03:05:31.496Z,234
2023-02-17T03:06:02.176Z,234
2023-02-17T03:06:35.014Z,234
2023-02-17T03:07:06.066Z,244
2023-02-17T03:07:39.065Z,234
2023-02-17T03:08:10.022Z,222
2023-02-17T03:08:42.815Z,244
2023-02-17T03:09:14.028Z,222
2023-02-17T03:09:46.803Z,217
2023-02-17T03:10:18.421Z,228
2023-02-17T03:10:50.708Z,228
2023-02-17T03:11:22.095Z,228
2023-02-17T03:11:55.966Z,243
2023-02-17T03:12:26.020Z,243
2023-02-17T03:12:58.965Z,222
2023-02-17T03:13:29.928Z,218
2023-02-17T03:14:02.866Z,218
2023-02-17T03:14:34.082Z,222
2023-02-17T03:15:07.882Z,217
2023-02-17T03:15:38.113Z,218
2023-02-17T03:16:11.084Z,218
2023-02-17T03:16:42.192Z,257
2023-02-17T03:17:14.729Z,257
2023-02-17T03:17:46.028Z,257
2023-02-17T03:18:18.777Z,229
2023-02-17T03:18:49.890Z,217
2023-02-17T03:19:23.514Z,218
2023-02-17T03:19:53.972Z,217
2023-02-17T03:20:27.402Z,217
2023-02-17T03:20:57.931Z,218
2023-02-17T03:21:30.771Z,218
2023-02-17T03:22:02.107Z,218
2023-02-17T03:22:34.872Z,218
2023-02-17T03:23:06.015Z,218
2023-02-17T03:23:39.101Z,218
2023-02-17T03:24:10.045Z,218
2023-02-17T03:24:42.899Z,218
2023-02-17T03:25:14.284Z,236
2023-02-17T03:25:46.884Z,236
2023-02-17T03:26:17.918Z,236
2023-02-17T03:26:34.015Z,236
2023-02-17T03:27:06.160Z,236
2023-02-17T03:27:38.039Z,232
2023-02-17T03:28:12.097Z,236
2023-02-17T03:28:42.218Z,236
2023-02-17T03:29:15.794Z,236
2023-02-17T03:29:46.059Z,236
2023-02-17T03:30:19.741Z,229
2023-02-17T03:30:50.006Z,236
2023-02-17T03:31:23.839Z,229
2023-02-17T03:31:54.069Z,229
2023-02-17T03:32:26.900Z,229
2023-02-17T03:32:57.966Z,242
2023-02-17T03:33:31.933Z,238
2023-02-17T03:34:02.106Z,229
2023-02-17T03:34:34.921Z,238
2023-02-17T03:35:06.168Z,238
2023-02-17T03:35:39.933Z,238
2023-02-17T03:36:10.064Z,238
2023-02-17T03:36:42.741Z,238
2023-02-17T03:37:13.949Z,238
2023-02-17T03:37:46.871Z,238
2023-02-17T03:38:18.143Z,238
2023-02-17T03:38:50.874Z,238
2023-02-17T03:39:22.021Z,238
2023-02-17T03:39:56.058Z,212
2023-02-17T03:40:26.274Z,237
2023-02-17T03:40:58.743Z,237
2023-02-17T03:41:30.042Z,237
2023-02-17T03:42:02.853Z,237
2023-02-17T03:42:33.992Z,199
2023-02-17T03:43:06.943Z,210
2023-02-17T03:43:38.118Z,210
2023-02-17T03:44:10.954Z,262
2023-02-17T03:44:41.993Z,220
2023-02-17T03:45:15.793Z,220
2023-02-17T03:45:46.037Z,218
2023-02-17T03:46:18.996Z,218
2023-02-17T03:46:50.075Z,252
2023-02-17T03:47:22.964Z,220
2023-02-17T03:47:53.904Z,229
2023-02-17T03:48:26.961Z,229
2023-02-17T03:48:58.037Z,229
2023-02-17T03:49:31.160Z,229
2023-02-17T03:50:02.346Z,229
2023-02-17T03:50:34.934Z,229
2023-02-17T03:51:06.085Z,255
2023-02-17T03:51:38.919Z,254
2023-02-17T03:52:09.987Z,255
2023-02-17T03:52:42.920Z,255
2023-02-17T03:53:13.879Z,255
2023-02-17T03:53:46.686Z,248
2023-02-17T03:54:18.014Z,248
2023-02-17T03:54:51.177Z,248
2023-02-17T03:55:22.320Z,248
2023-02-17T03:55:54.803Z,248
2023-02-17T03:56:26.068Z,248
2023-02-17T03:56:58.872Z,248
2023-02-17T03:57:30.023Z,248
2023-02-17T03:58:02.930Z,248
2023-02-17T03:58:34.069Z,248
2023-02-17T03:59:06.702Z,248
2023-02-17T03:59:37.916Z,248
2023-02-17T04:00:12.864Z,248
2023-02-17T04:00:41.798Z,248
2023-02-17T04:01:14.807Z,248
2023-02-17T04:01:46.063Z,248
2023-02-17T04:02:19.011Z,248
2023-02-17T04:02:49.893Z,248
2023-02-17T04:03:22.878Z,248
2023-02-17T04:03:54.144Z,248
2023-02-17T04:04:27.000Z,248
2023-02-17T04:04:57.934Z,247
2023-02-17T04:05:32.126Z,247
2023-02-17T04:06:02.308Z,247
2023-02-17T04:06:34.620Z,247
2023-02-17T04:07:05.968Z,247
2023-02-17T04:07:38.968Z,247
2023-02-17T04:08:10.033Z,247
2023-02-17T04:08:42.956Z,247
2023-02-17T04:09:14.024Z,247
2023-02-17T04:09:46.855Z,247
2023-02-17T04:10:18.258Z,247
2023-02-17T04:10:50.649Z,247
2023-02-17T04:11:22.054Z,247
2023-02-17T04:11:54.688Z,247
2023-02-17T04:12:25.972Z,247
2023-02-17T04:12:59.021Z,247
2023-02-17T04:13:30.115Z,247
2023-02-17T04:14:02.817Z,247
2023-02-17T04:14:33.963Z,247
2023-02-17T04:15:08.963Z,247
2023-02-17T04:15:38.110Z,247
2023-02-17T04:16:10.802Z,247
2023-02-17T04:16:42.035Z,178
2023-02-17T04:17:14.877Z,178
2023-02-17T04:17:45.965Z,178
2023-02-17T04:18:19.006Z,178
2023-02-17T04:18:50.020Z,178
2023-02-17T04:19:22.786Z,178
2023-02-17T04:19:53.977Z,178
2023-02-17T04:20:27.294Z,178
2023-02-17T04:20:57.977Z,174
2023-02-17T04:21:30.823Z,174
2023-02-17T04:22:02.197Z,169
2023-02-17T04:22:35.029Z,161
2023-02-17T04:23:05.946Z,170
2023-02-17T04:23:38.748Z,170
2023-02-17T04:24:10.069Z,170
2023-02-17T04:24:45.535Z,170
2023-02-17T04:25:14.242Z,175
2023-02-17T04:25:46.779Z,175
2023-02-17T04:26:18.125Z,175
2023-02-17T04:26:50.759Z,175
2023-02-17T04:27:22.027Z,172
2023-02-17T04:27:54.786Z,172
2023-02-17T04:28:25.941Z,172
2023-02-17T04:28:58.842Z,172
2023-02-17T04:29:29.982Z,172
2023-02-17T04:30:04.450Z,172
2023-02-17T04:30:33.981Z,172
2023-02-17T04:31:06.946Z,170
2023-02-17T04:31:38.106Z,170
2023-02-17T04:32:10.792Z,174
2023-02-17T04:32:41.955Z,168
2023-02-17T04:33:14.615Z,168
2023-02-17T04:33:46.006Z,183
2023-02-17T04:34:18.697Z,183
2023-02-17T04:34:50.014Z,175
2023-02-17T04:35:23.102Z,183
2023-02-17T04:35:53.962Z,183
2023-02-17T04:36:26.639Z,183
2023-02-17T04:36:58.053Z,183
2023-02-17T04:37:30.742Z,183
2023-02-17T04:38:02.003Z,183
2023-02-17T04:38:34.803Z,179
2023-02-17T04:39:05.949Z,182
2023-02-17T04:39:38.838Z,182
2023-02-17T04:40:10.363Z,177
2023-02-17T04:40:42.767Z,177
2023-02-17T04:41:14.182Z,179
2023-02-17T04:41:46.593Z,179
2023-02-17T04:42:17.967Z,180
2023-02-17T04:42:51.024Z,179
2023-02-17T04:43:21.891Z,179
2023-02-17T04:43:54.731Z,179
2023-02-17T04:44:26.015Z,179
2023-02-17T04:44:58.735Z,181
2023-02-17T04:45:31.077Z,181
2023-02-17T04:46:02.806Z,181
2023-02-17T04:46:34.157Z,181
2023-02-17T04:47:06.803Z,150
2023-02-17T04:47:37.919Z,172
2023-02-17T04:48:10.673Z,180
2023-02-17T04:48:42.189Z,180
2023-02-17T04:49:14.761Z,180
2023-02-17T04:49:46.114Z,180
2023-02-17T04:50:20.911Z,180
2023-02-17T04:50:49.895Z,180
2023-02-17T04:51:22.749Z,180
2023-02-17T04:51:54.063Z,180
2023-02-17T04:52:26.877Z,180
2023-02-17T04:52:57.998Z,180
2023-02-17T04:53:30.680Z,180
2023-02-17T04:54:02.116Z,173
2023-02-17T04:54:35.789Z,173
2023-02-17T04:55:06.201Z,170
2023-02-17T04:55:38.813Z,174
2023-02-17T04:56:10.130Z,174
2023-02-17T04:56:42.669Z,165
2023-02-17T04:57:14.013Z,167
2023-02-17T04:57:46.864Z,167
2023-02-17T04:58:17.925Z,167
2023-02-17T04:58:50.893Z,167
2023-02-17T04:59:23.592Z,167
2023-02-17T04:59:54.885Z,167
2023-02-17T05:00:27.187Z,167
2023-02-17T05:00:58.942Z,167
2023-02-17T05:01:30.125Z,167
2023-02-17T05:02:02.667Z,167
2023-02-17T05:02:33.968Z,165
2023-02-17T05:03:06.897Z,165
2023-02-17T05:03:38.077Z,165
2023-02-17T05:04:10.835Z,165
2023-02-17T05:04:43.924Z,183
2023-02-17T05:05:15.152Z,183
2023-02-17T05:05:45.963Z,189
2023-02-17T05:06:02.229Z,189
2023-02-17T05:06:34.199Z,184
2023-02-17T05:07:06.017Z,184
2023-02-17T05:07:39.071Z,184
2023-02-17T05:08:10.092Z,184
2023-02-17T05:08:42.739Z,184
2023-02-17T05:09:13.916Z,184
2023-02-17T05:09:46.710Z,188
2023-02-17T05:10:18.210Z,188
2023-02-17T05:10:51.915Z,188
2023-02-17T05:11:21.995Z,188
2023-02-17T05:11:54.939Z,213
2023-02-17T05:12:25.969Z,213
2023-02-17T05:12:58.969Z,211
2023-02-17T05:13:30.070Z,211
2023-02-17T05:14:03.710Z,211
2023-02-17T05:14:33.952Z,211
2023-02-17T05:15:07.929Z,257
2023-02-17T05:15:38.075Z,227
2023-02-17T05:16:10.829Z,227
2023-02-17T05:16:42.006Z,227
2023-02-17T05:17:15.080Z,204
2023-02-17T05:17:45.948Z,204
2023-02-17T05:18:19.095Z,204
2023-02-17T05:18:50.061Z,204
2023-02-17T05:19:22.886Z,201
2023-02-17T05:19:53.955Z,192
2023-02-17T05:20:27.324Z,230
2023-02-17T05:20:58.048Z,249
2023-02-17T05:21:30.785Z,249
2023-02-17T05:22:02.085Z,249
2023-02-17T05:22:34.954Z,249
2023-02-17T05:23:05.838Z,233
2023-02-17T05:23:38.892Z,237
2023-02-17T05:24:09.985Z,233
2023-02-17T05:24:42.774Z,266
2023-02-17T05:25:14.272Z,234
2023-02-17T05:25:46.792Z,231
2023-02-17T05:26:18.083Z,231
2023-02-17T05:26:50.874Z,231
2023-02-17T05:27:22.028Z,231
2023-02-17T05:27:54.881Z,231
2023-02-17T05:28:26.147Z,231
2023-02-17T05:28:58.697Z,231
2023-02-17T05:29:30.012Z,231
2023-02-17T05:30:04.542Z,231
2023-02-17T05:30:34.002Z,231
2023-02-17T05:31:07.225Z,231
2023-02-17T05:31:38.227Z,239
2023-02-17T05:32:10.869Z,247
2023-02-17T05:32:42.033Z,222
2023-02-17T05:33:14.883Z,241
2023-02-17T05:33:45.951Z,241
2023-02-17T05:34:18.945Z,241
2023-02-17T05:34:50.191Z,235
2023-02-17T05:35:22.886Z,247
2023-02-17T05:35:54.002Z,241
2023-02-17T05:36:26.886Z,241
2023-02-17T05:36:58.126Z,221
2023-02-17T05:37:31.852Z,229
2023-02-17T05:38:02.067Z,241
2023-02-17T05:38:34.948Z,241
2023-02-17T05:39:05.898Z,241
2023-02-17T05:39:38.972Z,231
2023-02-17T05:40:10.363Z,251
2023-02-17T05:40:42.631Z,264
2023-02-17T05:41:13.939Z,250
2023-02-17T05:41:46.854Z,229
2023-02-17T05:42:18.185Z,229
2023-02-17T05:42:50.892Z,244
2023-02-17T05:43:21.941Z,229
2023-02-17T05:43:55.022Z,229
2023-02-17T05:44:25.946Z,178
2023-02-17T05:44:58.809Z,226
2023-02-17T05:45:31.163Z,226
2023-02-17T05:46:02.965Z,226
2023-02-17T05:46:34.069Z,229
2023-02-17T05:47:06.924Z,229
2023-02-17T05:47:38.044Z,205
2023-02-17T05:48:10.780Z,272
2023-02-17T05:48:41.989Z,262
2023-02-17T05:49:14.934Z,253
2023-02-17T05:49:46.029Z,253
2023-02-17T05:50:19.366Z,222
2023-02-17T05:50:50.147Z,222
2023-02-17T05:51:22.923Z,222
2023-02-17T05:51:53.857Z,235
2023-02-17T05:52:27.044Z,235
2023-02-17T05:52:58.062Z,235
2023-02-17T05:53:31.162Z,231
2023-02-17T05:54:02.112Z,231
2023-02-17T05:54:35.012Z,231
2023-02-17T05:55:06.277Z,231
2023-02-17T05:55:38.741Z,231
2023-02-17T05:56:09.971Z,231
2023-02-17T05:56:42.687Z,231
2023-02-17T05:57:13.818Z,231
2023-02-17T05:57:46.972Z,241
2023-02-17T05:58:17.977Z,196
2023-02-17T05:58:51.122Z,235
2023-02-17T05:59:21.788Z,196
2023-02-17T05:59:54.825Z,233
2023-02-17T06:00:27.255Z,229
2023-02-17T06:00:59.657Z,233
2023-02-17T06:01:30.034Z,233
2023-02-17T06:02:02.891Z,233
2023-02-17T06:02:34.098Z,233
2023-02-17T06:03:07.072Z,233
2023-02-17T06:03:37.981Z,233
2023-02-17T06:04:11.175Z,233
2023-02-17T06:04:42.110Z,233
2023-02-17T06:05:15.254Z,233
2023-02-17T06:05:46.140Z,233
2023-02-17T06:06:18.863Z,218
2023-02-17T06:06:49.955Z,227
2023-02-17T06:07:22.962Z,227
2023-02-17T06:07:54.103Z,227
2023-02-17T06:08:26.779Z,218
2023-02-17T06:08:57.993Z,218
2023-02-17T06:09:30.990Z,218
2023-02-17T06:10:02.535Z,218
2023-02-17T06:10:34.965Z,248
2023-02-17T06:11:06.004Z,244
2023-02-17T06:11:38.864Z,250
2023-02-17T06:12:09.899Z,256
2023-02-17T06:12:42.919Z,256
2023-02-17T06:13:14.017Z,256
2023-02-17T06:13:46.998Z,230
2023-02-17T06:14:17.913Z,255
2023-02-17T06:14:34.177Z,262
2023-02-17T06:15:07.362Z,262
2023-02-17T06:15:38.113Z,262
2023-02-17T06:16:10.284Z,262
2023-02-17T06:16:41.963Z,262
2023-02-17T06:17:14.958Z,286
2023-02-17T06:17:45.996Z,262
2023-02-17T06:18:18.911Z,262
2023-02-17T06:18:49.968Z,229
2023-02-17T06:19:23.917Z,255
2023-02-17T06:19:54.087Z,255
2023-02-17T06:20:26.960Z,255
2023-02-17T06:20:58.028Z,255
2023-02-17T06:21:30.918Z,255
2023-02-17T06:22:02.142Z,255
2023-02-17T06:22:34.769Z,255
2023-02-17T06:23:06.050Z,261
2023-02-17T06:23:39.047Z,266
2023-02-17T06:24:09.917Z,261
2023-02-17T06:24:42.822Z,266
2023-02-17T06:25:14.363Z,206
2023-02-17T06:25:46.881Z,261
2023-02-17T06:26:18.044Z,254
2023-02-17T06:26:34.202Z,240
2023-02-17T06:27:05.994Z,261
2023-02-17T06:27:37.981Z,240
2023-02-17T06:28:10.043Z,240
2023-02-17T06:28:41.925Z,256
2023-02-17T06:29:14.835Z,256
2023-02-17T06:29:46.033Z,256
2023-02-17T06:30:20.261Z,256
2023-02-17T06:30:50.079Z,256
2023-02-17T06:31:23.061Z,256
2023-02-17T06:31:54.183Z,256
2023-02-17T06:32:26.731Z,250
2023-02-17T06:32:57.955Z,256
2023-02-17T06:33:30.785Z,179
2023-02-17T06:34:02.152Z,231
2023-02-17T06:34:35.046Z,231
2023-02-17T06:35:06.399Z,231
2023-02-17T06:35:39.106Z,231
2023-02-17T06:36:10.159Z,224
2023-02-17T06:36:43.019Z,224
2023-02-17T06:37:14.340Z,224
2023-02-17T06:37:47.351Z,225
2023-02-17T06:38:18.256Z,224
2023-02-17T06:38:34.402Z,224
2023-02-17T06:39:06.179Z,225
2023-02-17T06:39:38.167Z,262
2023-02-17T06:40:10.605Z,225
2023-02-17T06:40:42.215Z,225
2023-02-17T06:41:15.146Z,225
2023-02-17T06:41:46.274Z,225
2023-02-17T06:42:19.206Z,225
2023-02-17T06:42:50.206Z,226
2023-02-17T06:43:23.192Z,226
2023-02-17T06:43:54.329Z,253
2023-02-17T06:44:27.141Z,253
2023-02-17T06:44:58.256Z,233
2023-02-17T06:45:32.606Z,269
2023-02-17T06:46:02.514Z,233
2023-02-17T06:46:34.989Z,260
2023-02-17T06:47:06.261Z,260
2023-02-17T06:47:39.276Z,253
2023-02-17T06:48:10.116Z,261
2023-02-17T06:48:42.990Z,245
2023-02-17T06:49:14.283Z,261
2023-02-17T06:49:47.262Z,230
2023-02-17T06:50:18.567Z,261
2023-02-17T06:50:51.163Z,264
2023-02-17T06:51:22.191Z,241
2023-02-17T06:51:55.084Z,267
2023-02-17T06:52:26.396Z,267
2023-02-17T06:52:59.056Z,267
2023-02-17T06:53:30.224Z,267
2023-02-17T06:54:03.076Z,239
2023-02-17T06:54:34.330Z,239
2023-02-17T06:55:07.176Z,246
2023-02-17T06:55:38.290Z,243
2023-02-17T06:56:11.247Z,246
2023-02-17T06:56:42.509Z,222
2023-02-17T06:57:15.179Z,261
2023-02-17T06:57:46.368Z,250
2023-02-17T06:58:18.951Z,250
2023-02-17T06:58:50.210Z,250
2023-02-17T06:59:24.753Z,250
2023-02-17T06:59:54.289Z,250
2023-02-17T07:00:28.442Z,250
2023-02-17T07:00:58.407Z,250
2023-02-17T07:01:31.111Z,250
2023-02-17T07:02:02.868Z,222
2023-02-17T07:02:35.221Z,222
2023-02-17T07:03:06.396Z,222
2023-02-17T07:03:39.338Z,222
2023-02-17T07:04:10.319Z,222
2023-02-17T07:04:42.982Z,222
2023-02-17T07:05:14.643Z,222
2023-02-17T07:05:47.101Z,222
2023-02-17T07:06:18.076Z,273
2023-02-17T07:06:34.412Z,273
2023-02-17T07:07:06.195Z,228
2023-02-17T07:07:38.310Z,233
2023-02-17T07:08:11.283Z,233
2023-02-17T07:08:42.305Z,274
2023-02-17T07:09:15.150Z,274
2023-02-17T07:09:46.203Z,274
2023-02-17T07:10:19.538Z,213
2023-02-17T07:10:50.134Z,182
2023-02-17T07:11:23.116Z,202
2023-02-17T07:11:54.304Z,205
2023-02-17T07:12:28.201Z,179
2023-02-17T07:12:58.165Z,238
2023-02-17T07:13:32.090Z,186
2023-02-17T07:14:02.399Z,205
2023-02-17T07:14:35.018Z,205
2023-02-17T07:15:09.431Z,239
2023-02-17T07:15:39.177Z,239
2023-02-17T07:16:10.696Z,205
2023-02-17T07:16:43.099Z,205
2023-02-17T07:17:14.258Z,205
2023-02-17T07:17:47.341Z,251
2023-02-17T07:18:18.240Z,251
2023-02-17T07:18:51.057Z,183
2023-02-17T07:19:22.345Z,248